createdAt,value
2023-01-11T00:00:48.177Z,0
2023-01-11T00:01:47.894Z,0
2023-01-11T00:02:48.049Z,0
2023-01-11T00:03:48.223Z,0
2023-01-11T00:04:48.315Z,0
2023-01-11T00:05:48.257Z,0
2023-01-11T00:06:48.242Z,0
2023-01-11T00:07:48.044Z,0
2023-01-11T00:08:47.986Z,0
2023-01-11T00:09:48.281Z,0
2023-01-11T00:10:48.317Z,0
2023-01-11T00:11:48.025Z,0
2023-01-11T00:12:48.049Z,0
2023-01-11T00:13:47.811Z,0
2023-01-11T00:14:48.413Z,0
2023-01-11T00:15:48.657Z,0
2023-01-11T00:16:48.384Z,0
2023-01-11T00:17:48.386Z,0
2023-01-11T00:18:48.180Z,0
2023-01-11T00:19:48.432Z,0
2023-01-11T00:20:48.491Z,0
2023-01-11T00:21:48.445Z,0
2023-01-11T00:22:48.460Z,0
2023-01-11T00:23:48.230Z,0
2023-01-11T00:24:48.500Z,0
2023-01-11T00:25:48.487Z,0
2023-01-11T00:26:48.555Z,0
2023-01-11T00:27:48.553Z,0
2023-01-11T00:28:48.553Z,0
2023-01-11T00:29:48.722Z,0
2023-01-11T00:30:48.697Z,0
2023-01-11T00:31:48.676Z,0
2023-01-11T00:32:48.680Z,0
2023-01-11T00:33:48.359Z,0
2023-01-11T00:34:48.654Z,0
2023-01-11T00:35:48.704Z,0
2023-01-11T00:36:48.687Z,0
2023-01-11T00:37:48.714Z,0
2023-01-11T00:38:48.483Z,0
2023-01-11T00:39:48.467Z,0
2023-01-11T00:40:48.918Z,0
2023-01-11T00:41:48.773Z,0
2023-01-11T00:42:48.776Z,0
2023-01-11T00:43:48.515Z,0
2023-01-11T00:44:48.794Z,0
2023-01-11T00:45:48.856Z,0
2023-01-11T00:46:48.833Z,0
2023-01-11T00:47:48.561Z,0
2023-01-11T00:48:48.856Z,0
2023-01-11T00:49:48.882Z,0
2023-01-11T00:50:48.863Z,0
2023-01-11T00:51:48.703Z,0
2023-01-11T00:52:48.955Z,0
2023-01-11T00:53:48.912Z,0
2023-01-11T00:54:49.036Z,0
2023-01-11T00:55:48.165Z,0
2023-01-11T00:56:48.719Z,0
2023-01-11T00:57:48.992Z,0
2023-01-11T00:58:49.025Z,0
2023-01-11T00:59:49.018Z,0
2023-01-11T01:00:49.034Z,0
2023-01-11T01:01:49.048Z,0
2023-01-11T01:02:49.404Z,0
2023-01-11T01:03:49.092Z,0
2023-01-11T01:04:49.210Z,0
2023-01-11T01:05:49.104Z,0
2023-01-11T01:06:49.314Z,0
2023-01-11T01:07:49.165Z,0
2023-01-11T01:08:49.167Z,0
2023-01-11T01:09:49.161Z,0
2023-01-11T01:10:49.151Z,0
2023-01-11T01:11:48.665Z,0
2023-01-11T01:12:49.209Z,0
2023-01-11T01:13:49.211Z,0
2023-01-11T01:14:49.264Z,0
2023-01-11T01:15:49.431Z,0
2023-01-11T01:16:49.245Z,0
2023-01-11T01:17:49.276Z,0
2023-01-11T01:18:49.336Z,0
2023-01-11T01:19:49.298Z,0
2023-01-11T01:20:49.317Z,0
2023-01-11T01:21:49.343Z,0
2023-01-11T01:22:49.083Z,0
2023-01-11T01:23:49.156Z,0
2023-01-11T01:24:49.415Z,0
2023-01-11T01:25:49.621Z,0
2023-01-11T01:26:49.439Z,0
2023-01-11T01:27:48.971Z,0
2023-01-11T01:28:49.205Z,0
2023-01-11T01:29:49.473Z,0
2023-01-11T01:30:49.235Z,0
2023-01-11T01:31:48.972Z,0
2023-01-11T01:32:49.512Z,0
2023-01-11T01:33:49.259Z,0
2023-01-11T01:34:49.323Z,0
2023-01-11T01:35:49.293Z,0
2023-01-11T01:36:49.596Z,0
2023-01-11T01:37:49.573Z,0
2023-01-11T01:38:49.593Z,0
2023-01-11T01:39:49.408Z,0
2023-01-11T01:40:49.450Z,0
2023-01-11T01:41:49.635Z,0
2023-01-11T01:42:49.409Z,0
2023-01-11T01:43:52.482Z,0
2023-01-11T01:44:49.695Z,0
2023-01-11T01:45:49.439Z,0
2023-01-11T01:46:49.533Z,0
2023-01-11T01:47:49.756Z,0
2023-01-11T01:48:49.499Z,0
2023-01-11T01:49:49.760Z,0
2023-01-11T01:50:49.613Z,0
2023-01-11T01:51:49.290Z,0
2023-01-11T01:52:49.794Z,0
2023-01-11T01:53:49.817Z,0
2023-01-11T01:54:49.969Z,0
2023-01-11T01:55:49.898Z,0
2023-01-11T01:56:49.894Z,0
2023-01-11T01:57:49.634Z,0
2023-01-11T01:58:49.897Z,0
2023-01-11T01:59:49.629Z,0
2023-01-11T02:00:49.944Z,0
2023-01-11T02:01:50.354Z,0
2023-01-11T02:02:50.245Z,0
2023-01-11T02:03:49.973Z,0
2023-01-11T02:04:49.519Z,0
2023-01-11T02:05:49.992Z,0
2023-01-11T02:06:50.334Z,0
2023-01-11T02:07:50.059Z,0
2023-01-11T02:08:50.047Z,0
2023-01-11T02:09:50.074Z,0
2023-01-11T02:10:50.054Z,0
2023-01-11T02:11:50.120Z,0
2023-01-11T02:12:50.124Z,0
2023-01-11T02:13:50.125Z,0
2023-01-11T02:14:49.625Z,0
2023-01-11T02:15:50.437Z,0
2023-01-11T02:16:49.904Z,0
2023-01-11T02:17:50.203Z,0
2023-01-11T02:18:49.944Z,0
2023-01-11T02:19:50.210Z,0
2023-01-11T02:20:50.249Z,0
2023-01-11T02:21:50.228Z,0
2023-01-11T02:22:50.005Z,0
2023-01-11T02:23:50.251Z,0
2023-01-11T02:24:50.029Z,0
2023-01-11T02:25:50.284Z,0
2023-01-11T02:26:50.298Z,0
2023-01-11T02:27:50.108Z,0
2023-01-11T02:28:50.094Z,0
2023-01-11T02:29:50.358Z,0
2023-01-11T02:30:50.385Z,0
2023-01-11T02:31:50.408Z,0
2023-01-11T02:32:50.400Z,0
2023-01-11T02:33:50.435Z,0
2023-01-11T02:34:50.534Z,0
2023-01-11T02:35:50.649Z,0
2023-01-11T02:36:50.230Z,0
2023-01-11T02:37:50.515Z,0
2023-01-11T02:38:50.516Z,0
2023-01-11T02:39:50.245Z,0
2023-01-11T02:40:50.511Z,0
2023-01-11T02:41:50.272Z,0
2023-01-11T02:42:50.541Z,0
2023-01-11T02:43:50.575Z,0
2023-01-11T02:44:50.422Z,0
2023-01-11T02:45:50.614Z,0
2023-01-11T02:46:51.216Z,0
2023-01-11T02:47:50.381Z,0
2023-01-11T02:48:50.389Z,0
2023-01-11T02:49:50.416Z,0
2023-01-11T02:50:50.187Z,0
2023-01-11T02:51:50.420Z,0
2023-01-11T02:52:50.461Z,0
2023-01-11T02:53:50.476Z,0
2023-01-11T02:54:50.241Z,0
2023-01-11T02:55:50.471Z,0
2023-01-11T02:56:50.772Z,0
2023-01-11T02:57:50.785Z,0
2023-01-11T02:58:50.509Z,0
2023-01-11T02:59:50.551Z,0
2023-01-11T03:00:50.581Z,0
2023-01-11T03:01:51.181Z,0
2023-01-11T03:02:51.017Z,0
2023-01-11T03:03:50.893Z,0
2023-01-11T03:04:50.603Z,0
2023-01-11T03:05:50.675Z,0
2023-01-11T03:06:50.850Z,0
2023-01-11T03:07:50.932Z,0
2023-01-11T03:08:50.987Z,0
2023-01-11T03:09:50.738Z,0
2023-01-11T03:10:50.751Z,0
2023-01-11T03:11:50.972Z,0
2023-01-11T03:12:50.991Z,0
2023-01-11T03:13:50.760Z,0
2023-01-11T03:14:50.864Z,0
2023-01-11T03:15:51.052Z,0
2023-01-11T03:16:51.080Z,0
2023-01-11T03:17:50.826Z,0
2023-01-11T03:18:51.099Z,0
2023-01-11T03:19:51.136Z,0
2023-01-11T03:20:51.139Z,0
2023-01-11T03:21:50.936Z,0
2023-01-11T03:22:51.202Z,0
2023-01-11T03:23:50.923Z,0
2023-01-11T03:24:51.146Z,0
2023-01-11T03:25:51.193Z,0
2023-01-11T03:26:50.972Z,0
2023-01-11T03:27:50.977Z,0
2023-01-11T03:28:51.247Z,0
2023-01-11T03:29:50.976Z,0
2023-01-11T03:30:51.287Z,0
2023-01-11T03:31:51.424Z,0
2023-01-11T03:32:51.313Z,0
2023-01-11T03:33:51.326Z,0
2023-01-11T03:34:51.403Z,0
2023-01-11T03:35:51.544Z,0
2023-01-11T03:36:50.838Z,0
2023-01-11T03:37:51.396Z,0
2023-01-11T03:38:51.403Z,0
2023-01-11T03:39:51.169Z,0
2023-01-11T03:40:51.412Z,0
2023-01-11T03:41:51.448Z,0
2023-01-11T03:42:51.195Z,0
2023-01-11T03:43:51.236Z,0
2023-01-11T03:44:51.482Z,0
2023-01-11T03:45:51.294Z,0
2023-01-11T03:46:51.740Z,0
2023-01-11T03:47:51.647Z,0
2023-01-11T03:48:51.561Z,0
2023-01-11T03:49:51.547Z,0
2023-01-11T03:50:51.844Z,0
2023-01-11T03:51:51.607Z,0
2023-01-11T03:52:51.588Z,0
2023-01-11T03:53:51.406Z,0
2023-01-11T03:54:51.694Z,0
2023-01-11T03:55:51.518Z,0
2023-01-11T03:56:51.399Z,0
2023-01-11T03:57:51.683Z,0
2023-01-11T03:58:51.714Z,0
2023-01-11T03:59:51.686Z,0
2023-01-11T04:00:51.895Z,0
2023-01-11T04:01:51.467Z,0
2023-01-11T04:02:51.740Z,0
2023-01-11T04:03:51.814Z,0
2023-01-11T04:04:51.789Z,0
2023-01-11T04:05:51.777Z,0
2023-01-11T04:06:52.109Z,0
2023-01-11T04:07:51.822Z,0
2023-01-11T04:08:51.878Z,0
2023-01-11T04:09:51.841Z,0
2023-01-11T04:10:51.881Z,0
2023-01-11T04:11:51.885Z,0
2023-01-11T04:12:51.389Z,0
2023-01-11T04:13:51.673Z,0
2023-01-11T04:14:51.944Z,0
2023-01-11T04:15:51.685Z,0
2023-01-11T04:16:51.951Z,0
2023-01-11T04:17:51.454Z,0
2023-01-11T04:18:51.981Z,0
2023-01-11T04:19:52.049Z,0
2023-01-11T04:20:51.544Z,0
2023-01-11T04:21:52.023Z,0
2023-01-11T04:22:51.770Z,0
2023-01-11T04:23:52.053Z,0
2023-01-11T04:24:52.078Z,0
2023-01-11T04:25:52.091Z,0
2023-01-11T04:26:52.128Z,0
2023-01-11T04:27:52.115Z,0
2023-01-11T04:28:54.156Z,0
2023-01-11T04:29:52.130Z,0
2023-01-11T04:30:52.193Z,0
2023-01-11T04:31:52.509Z,0
2023-01-11T04:32:51.932Z,0
2023-01-11T04:33:52.025Z,0
2023-01-11T04:34:52.215Z,0
2023-01-11T04:35:52.611Z,0
2023-01-11T04:36:52.283Z,0
2023-01-11T04:37:52.264Z,0
2023-01-11T04:38:52.274Z,0
2023-01-11T04:39:52.283Z,0
2023-01-11T04:40:52.308Z,0
2023-01-11T04:41:52.322Z,0
2023-01-11T04:42:52.365Z,0
2023-01-11T04:43:51.594Z,0
2023-01-11T04:44:52.364Z,0
2023-01-11T04:45:52.307Z,0
2023-01-11T04:46:52.470Z,0
2023-01-11T04:47:51.882Z,0
2023-01-11T04:48:52.158Z,0
2023-01-11T04:49:52.438Z,0
2023-01-11T04:50:52.588Z,0
2023-01-11T04:51:52.261Z,0
2023-01-11T04:52:52.268Z,0
2023-01-11T04:53:52.505Z,0
2023-01-11T04:54:52.524Z,0
2023-01-11T04:55:52.552Z,0
2023-01-11T04:56:52.550Z,0
2023-01-11T04:57:52.297Z,0
2023-01-11T04:58:52.614Z,0
2023-01-11T04:59:52.333Z,0
2023-01-11T05:00:52.829Z,0
2023-01-11T05:01:52.368Z,0
2023-01-11T05:02:52.447Z,0
2023-01-11T05:03:52.784Z,0
2023-01-11T05:04:52.665Z,0
2023-01-11T05:05:52.685Z,0
2023-01-11T05:06:52.916Z,0
2023-01-11T05:07:53.035Z,0
2023-01-11T05:08:52.767Z,0
2023-01-11T05:09:52.472Z,0
2023-01-11T05:10:52.528Z,0
2023-01-11T05:11:52.519Z,0
2023-01-11T05:12:52.815Z,0
2023-01-11T05:13:52.832Z,0
2023-01-11T05:14:52.614Z,0
2023-01-11T05:15:52.586Z,0
2023-01-11T05:16:53.172Z,0
2023-01-11T05:17:52.890Z,0
2023-01-11T05:18:52.935Z,0
2023-01-11T05:19:52.632Z,0
2023-01-11T05:20:52.923Z,0
2023-01-11T05:21:52.938Z,0
2023-01-11T05:22:52.709Z,0
2023-01-11T05:23:52.989Z,0
2023-01-11T05:24:53.017Z,0
2023-01-11T05:25:53.080Z,0
2023-01-11T05:26:52.506Z,0
2023-01-11T05:27:53.018Z,0
2023-01-11T05:28:52.803Z,0
2023-01-11T05:29:53.057Z,0
2023-01-11T05:30:52.827Z,0
2023-01-11T05:31:53.131Z,0
2023-01-11T05:32:53.118Z,0
2023-01-11T05:33:52.854Z,0
2023-01-11T05:34:53.185Z,0
2023-01-11T05:35:56.103Z,0
2023-01-11T05:36:52.899Z,0
2023-01-11T05:37:53.160Z,0
2023-01-11T05:38:52.946Z,0
2023-01-11T05:39:52.973Z,0
2023-01-11T05:40:53.254Z,0
2023-01-11T05:41:52.989Z,0
2023-01-11T05:42:53.239Z,0
2023-01-11T05:43:53.001Z,0
2023-01-11T05:44:53.024Z,0
2023-01-11T05:45:53.661Z,0
2023-01-11T05:46:53.332Z,0
2023-01-11T05:47:53.318Z,0
2023-01-11T05:48:53.327Z,0
2023-01-11T05:49:53.385Z,0
2023-01-11T05:50:53.387Z,0
2023-01-11T05:51:53.427Z,0
2023-01-11T05:52:53.394Z,0
2023-01-11T05:53:53.404Z,0
2023-01-11T05:54:53.160Z,0
2023-01-11T05:55:53.464Z,0
2023-01-11T05:56:53.515Z,0
2023-01-11T05:57:53.213Z,0
2023-01-11T05:58:53.225Z,0
2023-01-11T05:59:53.490Z,0
2023-01-11T06:00:53.537Z,0
2023-01-11T06:01:53.788Z,0
2023-01-11T06:02:54.322Z,0
2023-01-11T06:03:53.617Z,0
2023-01-11T06:04:55.388Z,0
2023-01-11T06:05:53.435Z,0
2023-01-11T06:06:53.890Z,0
2023-01-11T06:07:53.350Z,0
2023-01-11T06:08:53.392Z,0
2023-01-11T06:09:53.730Z,0
2023-01-11T06:10:53.800Z,0
2023-01-11T06:11:53.488Z,0
2023-01-11T06:12:53.736Z,0
2023-01-11T06:13:53.728Z,0
2023-01-11T06:14:53.557Z,0
2023-01-11T06:15:53.233Z,0
2023-01-11T06:16:53.861Z,0
2023-01-11T06:17:53.785Z,0
2023-01-11T06:18:53.873Z,0
2023-01-11T06:19:53.800Z,0
2023-01-11T06:20:53.301Z,0
2023-01-11T06:21:53.586Z,0
2023-01-11T06:22:53.877Z,0
2023-01-11T06:23:53.885Z,0
2023-01-11T06:24:53.885Z,0
2023-01-11T06:25:53.729Z,0
2023-01-11T06:26:53.919Z,0
2023-01-11T06:27:53.960Z,0
2023-01-11T06:28:53.787Z,0
2023-01-11T06:29:53.962Z,0
2023-01-11T06:30:54.286Z,0
2023-01-11T06:31:53.983Z,0
2023-01-11T06:32:53.998Z,0
2023-01-11T06:33:53.997Z,0
2023-01-11T06:34:54.082Z,0
2023-01-11T06:35:54.102Z,0
2023-01-11T06:36:53.834Z,0
2023-01-11T06:37:54.071Z,0
2023-01-11T06:38:54.287Z,0
2023-01-11T06:39:54.360Z,0
2023-01-11T06:40:54.122Z,0
2023-01-11T06:41:54.149Z,0
2023-01-11T06:42:53.937Z,0
2023-01-11T06:43:54.037Z,0
2023-01-11T06:44:53.971Z,0
2023-01-11T06:45:54.462Z,0
2023-01-11T06:46:54.221Z,0
2023-01-11T06:47:54.225Z,0
2023-01-11T06:48:54.254Z,0
2023-01-11T06:49:54.385Z,0
2023-01-11T06:50:54.332Z,0
2023-01-11T06:51:54.279Z,0
2023-01-11T06:52:54.045Z,0
2023-01-11T06:53:54.068Z,0
2023-01-11T06:54:54.556Z,0
2023-01-11T06:55:54.084Z,0
2023-01-11T06:56:54.375Z,0
2023-01-11T06:57:54.391Z,0
2023-01-11T06:58:55.605Z,0
2023-01-11T06:59:54.463Z,0
2023-01-11T07:00:55.090Z,0
2023-01-11T07:01:54.519Z,0
2023-01-11T07:02:54.460Z,0
2023-01-11T07:03:54.478Z,0
2023-01-11T07:04:54.319Z,0
2023-01-11T07:05:54.278Z,0
2023-01-11T07:06:54.524Z,0
2023-01-11T07:07:54.535Z,0
2023-01-11T07:08:54.552Z,0
2023-01-11T07:09:54.561Z,0
2023-01-11T07:10:54.620Z,0
2023-01-11T07:11:54.350Z,0
2023-01-11T07:12:54.342Z,0
2023-01-11T07:13:54.626Z,0
2023-01-11T07:14:54.470Z,0
2023-01-11T07:15:54.979Z,0
2023-01-11T07:16:54.692Z,0
2023-01-11T07:17:54.708Z,0
2023-01-11T07:18:54.725Z,0
2023-01-11T07:19:54.733Z,0
2023-01-11T07:20:54.332Z,0
2023-01-11T07:21:54.239Z,0
2023-01-11T07:22:54.527Z,0
2023-01-11T07:23:54.775Z,0
2023-01-11T07:24:55.793Z,0
2023-01-11T07:25:55.072Z,0
2023-01-11T07:26:54.846Z,0
2023-01-11T07:27:54.583Z,0
2023-01-11T07:28:54.341Z,0
2023-01-11T07:29:54.343Z,0
2023-01-11T07:31:06.273Z,0
2023-01-11T07:31:54.767Z,0
2023-01-11T07:32:54.931Z,0
2023-01-11T07:33:54.938Z,0
2023-01-11T07:34:54.707Z,0
2023-01-11T07:35:55.474Z,0
2023-01-11T07:36:54.957Z,0
2023-01-11T07:37:54.978Z,0
2023-01-11T07:38:55.027Z,0
2023-01-11T07:39:54.759Z,0
2023-01-11T07:40:55.046Z,0
2023-01-11T07:41:55.075Z,0
2023-01-11T07:42:55.070Z,0
2023-01-11T07:43:55.128Z,0
2023-01-11T07:44:55.091Z,0
2023-01-11T07:45:55.969Z,0
2023-01-11T07:46:55.796Z,0
2023-01-11T07:47:55.140Z,0
2023-01-11T07:48:55.160Z,0
2023-01-11T07:49:55.158Z,0
2023-01-11T07:50:55.265Z,0
2023-01-11T07:51:54.957Z,0
2023-01-11T07:52:54.963Z,0
2023-01-11T07:53:55.279Z,0
2023-01-11T07:54:54.747Z,0
2023-01-11T07:55:55.279Z,0
2023-01-11T07:56:55.278Z,0
2023-01-11T07:57:55.303Z,0
2023-01-11T07:58:55.243Z,0
2023-01-11T07:59:55.309Z,0
2023-01-11T08:00:55.113Z,0
2023-01-11T08:01:55.333Z,0
2023-01-11T08:02:55.915Z,0
2023-01-11T08:03:55.731Z,0
2023-01-11T08:04:55.402Z,0
2023-01-11T08:05:55.399Z,4
2023-01-11T08:06:55.465Z,4
2023-01-11T08:07:55.186Z,0
2023-01-11T08:08:55.459Z,4
2023-01-11T08:09:55.459Z,4
2023-01-11T08:10:55.586Z,4
2023-01-11T08:11:55.233Z,0
2023-01-11T08:12:58.681Z,0
2023-01-11T08:13:55.715Z,0
2023-01-11T08:14:55.619Z,0
2023-01-11T08:15:55.765Z,0
2023-01-11T08:16:55.312Z,0
2023-01-11T08:17:55.111Z,4
2023-01-11T08:18:55.391Z,4
2023-01-11T08:19:55.655Z,0
2023-01-11T08:20:55.732Z,4
2023-01-11T08:21:55.679Z,4
2023-01-11T08:22:55.401Z,4
2023-01-11T08:23:55.428Z,4
2023-01-11T08:24:55.718Z,4
2023-01-11T08:25:55.755Z,4
2023-01-11T08:26:55.671Z,4
2023-01-11T08:27:55.791Z,4
2023-01-11T08:28:55.797Z,4
2023-01-11T08:29:55.758Z,4
2023-01-11T08:30:55.562Z,8
2023-01-11T08:31:55.811Z,8
2023-01-11T08:32:55.828Z,4
2023-01-11T08:33:55.850Z,8
2023-01-11T08:34:55.900Z,4
2023-01-11T08:35:56.322Z,4
2023-01-11T08:36:55.997Z,4
2023-01-11T08:37:55.924Z,8
2023-01-11T08:38:55.932Z,8
2023-01-11T08:39:55.937Z,8
2023-01-11T08:40:55.715Z,12
2023-01-11T08:41:55.698Z,8
2023-01-11T08:42:55.758Z,12
2023-01-11T08:43:56.042Z,12
2023-01-11T08:44:55.796Z,12
2023-01-11T08:45:56.037Z,12
2023-01-11T08:46:57.198Z,12
2023-01-11T08:47:56.369Z,8
2023-01-11T08:48:56.084Z,8
2023-01-11T08:49:55.831Z,8
2023-01-11T08:50:56.174Z,12
2023-01-11T08:51:56.140Z,12
2023-01-11T08:52:56.596Z,12
2023-01-11T08:53:56.182Z,12
2023-01-11T08:54:56.158Z,12
2023-01-11T08:55:56.177Z,8
2023-01-11T08:56:55.949Z,12
2023-01-11T08:57:55.699Z,8
2023-01-11T08:58:56.255Z,12
2023-01-11T08:59:55.745Z,8
2023-01-11T09:00:56.004Z,8
2023-01-11T09:01:55.973Z,8
2023-01-11T09:02:56.478Z,8
2023-01-11T09:03:56.290Z,8
2023-01-11T09:04:56.313Z,12
2023-01-11T09:05:56.348Z,12
2023-01-11T09:06:56.142Z,12
2023-01-11T09:07:56.363Z,12
2023-01-11T09:08:56.396Z,8
2023-01-11T09:09:56.493Z,8
2023-01-11T09:10:56.437Z,8
2023-01-11T09:11:56.155Z,8
2023-01-11T09:12:56.435Z,12
2023-01-11T09:13:56.467Z,12
2023-01-11T09:14:56.505Z,12
2023-01-11T09:15:56.684Z,12
2023-01-11T09:16:56.515Z,12
2023-01-11T09:17:56.259Z,12
2023-01-11T09:18:56.304Z,12
2023-01-11T09:19:56.002Z,12
2023-01-11T09:20:56.305Z,12
2023-01-11T09:21:56.093Z,16
2023-01-11T09:22:59.253Z,12
2023-01-11T09:23:56.616Z,16
2023-01-11T09:24:56.187Z,16
2023-01-11T09:25:56.148Z,12
2023-01-11T09:26:56.817Z,12
2023-01-11T09:27:56.764Z,16
2023-01-11T09:28:56.625Z,16
2023-01-11T09:29:56.427Z,16
2023-01-11T09:30:56.955Z,16
2023-01-11T09:31:56.734Z,16
2023-01-11T09:32:56.743Z,12
2023-01-11T09:33:56.745Z,16
2023-01-11T09:34:56.629Z,12
2023-01-11T09:35:56.757Z,12
2023-01-11T09:36:56.808Z,12
2023-01-11T09:37:56.321Z,16
2023-01-11T09:38:56.863Z,12
2023-01-11T09:39:56.857Z,16
2023-01-11T09:40:56.898Z,16
2023-01-11T09:41:56.625Z,12
2023-01-11T09:42:56.788Z,12
2023-01-11T09:43:56.702Z,16
2023-01-11T09:44:56.941Z,16
2023-01-11T09:45:56.956Z,12
2023-01-11T09:46:57.055Z,12
2023-01-11T09:47:56.970Z,16
2023-01-11T09:48:56.747Z,16
2023-01-11T09:49:56.740Z,16
2023-01-11T09:50:57.351Z,20
2023-01-11T09:51:59.740Z,16
2023-01-11T09:52:56.808Z,20
2023-01-11T09:53:57.002Z,20
2023-01-11T09:54:57.122Z,20
2023-01-11T09:55:56.883Z,16
2023-01-11T09:56:57.197Z,16
2023-01-11T09:57:57.101Z,16
2023-01-11T09:58:56.624Z,12
2023-01-11T09:59:57.400Z,12
2023-01-11T10:00:59.615Z,12
2023-01-11T10:01:57.189Z,12
2023-01-11T10:02:56.988Z,16
2023-01-11T10:03:57.238Z,16
2023-01-11T10:04:56.987Z,16
2023-01-11T10:05:57.276Z,16
2023-01-11T10:06:57.360Z,20
2023-01-11T10:14:05.735Z,20
2023-01-11T10:19:45.110Z,20
2023-01-11T10:20:07.314Z,16
2023-01-11T10:21:07.092Z,16
2023-01-11T10:22:07.140Z,12
2023-01-11T10:23:07.135Z,8
2023-01-11T10:24:07.167Z,8
2023-01-11T10:25:06.908Z,12
2023-01-11T10:26:06.898Z,8
2023-01-11T10:27:07.480Z,4
2023-01-11T10:28:06.977Z,8
2023-01-11T10:29:07.273Z,16
2023-01-11T10:30:07.254Z,12
2023-01-11T10:31:07.362Z,16
2023-01-11T10:32:07.302Z,16
2023-01-11T10:33:07.041Z,16
2023-01-11T10:34:06.870Z,8
2023-01-11T10:35:07.549Z,8
2023-01-11T10:36:07.077Z,12
2023-01-11T10:37:07.357Z,12
2023-01-11T10:38:06.881Z,12
2023-01-11T10:39:07.110Z,12
2023-01-11T10:40:07.243Z,12
2023-01-11T10:41:06.898Z,16
2023-01-11T10:42:07.176Z,12
2023-01-11T10:43:07.231Z,8
2023-01-11T10:44:07.504Z,8
2023-01-11T10:45:07.629Z,8
2023-01-11T10:47:07.261Z,12
2023-01-11T10:48:07.320Z,12
2023-01-11T10:49:07.555Z,16
2023-01-11T10:50:10.962Z,20
2023-01-11T10:51:07.671Z,24
2023-01-11T10:52:07.584Z,28
2023-01-11T10:53:07.071Z,32
2023-01-11T10:54:08.465Z,32
2023-01-11T10:55:07.568Z,32
2023-01-11T10:56:07.423Z,28
2023-01-11T10:57:12.707Z,28
2023-01-11T10:58:09.882Z,32
2023-01-11T10:59:07.514Z,28
2023-01-11T11:00:07.293Z,28
2023-01-11T11:01:08.204Z,28
2023-01-11T11:02:07.694Z,28
2023-01-11T11:03:07.841Z,32
2023-01-11T11:04:08.545Z,28
2023-01-11T11:05:07.845Z,28
2023-01-11T11:06:07.808Z,24
2023-01-11T11:07:07.979Z,24
2023-01-11T11:08:07.576Z,24
2023-01-11T11:09:07.587Z,20
2023-01-11T11:10:07.984Z,16
2023-01-11T11:11:07.613Z,16
2023-01-11T11:12:07.789Z,12
2023-01-11T11:13:08.144Z,16
2023-01-11T11:14:07.959Z,16
2023-01-11T11:15:08.228Z,20
2023-01-11T11:16:08.165Z,20
2023-01-11T11:17:07.992Z,20
2023-01-11T11:18:07.741Z,20
2023-01-11T11:19:08.031Z,16
2023-01-11T11:20:08.017Z,20
2023-01-11T11:21:07.827Z,20
2023-01-11T11:22:08.034Z,24
2023-01-11T11:23:07.846Z,28
2023-01-11T11:24:08.101Z,24
2023-01-11T11:25:08.105Z,28
2023-01-11T11:26:07.920Z,24
2023-01-11T11:27:08.219Z,24
2023-01-11T11:28:07.883Z,24
2023-01-11T11:29:08.030Z,24
2023-01-11T11:30:08.197Z,28
2023-01-11T11:31:08.212Z,28
2023-01-11T11:32:08.428Z,28
2023-01-11T11:33:08.251Z,28
2023-01-11T11:34:08.020Z,28
2023-01-11T11:35:08.226Z,28
2023-01-11T11:36:07.993Z,24
2023-01-11T11:37:08.051Z,24
2023-01-11T11:38:08.293Z,20
2023-01-11T11:39:08.443Z,20
2023-01-11T11:40:07.813Z,20
2023-01-11T11:41:08.101Z,20
2023-01-11T11:42:08.374Z,16
2023-01-11T11:43:08.377Z,16
2023-01-11T11:44:08.407Z,16
2023-01-11T11:45:08.409Z,12
2023-01-11T11:46:08.820Z,12
2023-01-11T11:47:08.475Z,12
2023-01-11T11:48:08.507Z,16
2023-01-11T11:49:08.470Z,20
2023-01-11T11:50:08.524Z,24
2023-01-11T11:51:08.493Z,24
2023-01-11T11:52:08.244Z,24
2023-01-11T11:53:08.523Z,24
2023-01-11T11:54:08.522Z,24
2023-01-11T11:55:08.596Z,24
2023-01-11T11:56:08.302Z,28
2023-01-11T11:57:08.306Z,28
2023-01-11T11:58:08.668Z,28
2023-01-11T11:59:08.598Z,28
2023-01-11T12:00:08.644Z,28
2023-01-11T12:01:08.690Z,28
2023-01-11T12:02:08.921Z,24
2023-01-11T12:03:08.671Z,24
2023-01-11T12:04:08.673Z,20
2023-01-11T12:05:08.743Z,20
2023-01-11T12:06:08.470Z,24
2023-01-11T12:07:08.768Z,28
2023-01-11T12:08:08.740Z,28
2023-01-11T12:09:08.500Z,32
2023-01-11T12:10:08.791Z,32
2023-01-11T12:11:08.638Z,28
2023-01-11T12:12:08.605Z,32
2023-01-11T12:13:08.827Z,32
2023-01-11T12:14:08.633Z,28
2023-01-11T12:15:08.836Z,32
2023-01-11T12:16:08.657Z,32
2023-01-11T12:17:09.052Z,24
2023-01-11T12:18:08.619Z,28
2023-01-11T12:19:08.957Z,28
2023-01-11T12:20:08.668Z,24
2023-01-11T12:21:09.012Z,28
2023-01-11T12:22:08.940Z,28
2023-01-11T12:23:08.705Z,28
2023-01-11T12:24:09.038Z,24
2023-01-11T12:25:09.054Z,24
2023-01-11T12:26:09.026Z,24
2023-01-11T12:27:09.460Z,24
2023-01-11T12:28:08.802Z,24
2023-01-11T12:29:09.083Z,20
2023-01-11T12:30:09.112Z,24
2023-01-11T12:31:09.444Z,24
2023-01-11T12:32:08.861Z,20
2023-01-11T12:33:09.123Z,20
2023-01-11T12:34:09.140Z,20
2023-01-11T12:35:08.919Z,20
2023-01-11T12:36:10.790Z,28
2023-01-11T12:37:09.220Z,24
2023-01-11T12:38:09.201Z,24
2023-01-11T12:39:09.268Z,24
2023-01-11T12:40:09.252Z,24
2023-01-11T12:41:11.006Z,28
2023-01-11T12:42:08.998Z,36
2023-01-11T12:43:09.317Z,28
2023-01-11T12:44:09.297Z,36
2023-01-11T12:45:09.046Z,40
2023-01-11T12:46:09.420Z,40
2023-01-11T12:47:09.350Z,40
2023-01-11T12:48:09.121Z,40
2023-01-11T12:49:09.373Z,44
2023-01-11T12:50:09.143Z,40
2023-01-11T12:51:09.449Z,40
2023-01-11T12:52:09.519Z,36
2023-01-11T12:53:09.201Z,32
2023-01-11T12:54:09.462Z,32
2023-01-11T12:55:09.525Z,32
2023-01-11T12:56:09.212Z,32
2023-01-11T12:57:08.989Z,36
2023-01-11T12:58:09.284Z,36
2023-01-11T12:59:09.617Z,32
2023-01-11T13:00:09.307Z,32
2023-01-11T13:01:09.522Z,36
2023-01-11T13:02:09.345Z,36
2023-01-11T13:03:09.603Z,36
2023-01-11T13:04:11.990Z,40
2023-01-11T13:05:09.406Z,44
2023-01-11T13:06:09.121Z,44
2023-01-11T13:07:09.404Z,44
2023-01-11T13:08:09.683Z,44
2023-01-11T13:09:09.707Z,44
2023-01-11T13:10:09.710Z,44
2023-01-11T13:11:09.728Z,44
2023-01-11T13:12:09.468Z,48
2023-01-11T13:13:09.752Z,44
2023-01-11T13:14:09.801Z,48
2023-01-11T13:15:09.847Z,44
2023-01-11T13:16:09.804Z,44
2023-01-11T13:17:10.061Z,40
2023-01-11T13:18:09.347Z,44
2023-01-11T13:19:09.855Z,44
2023-01-11T13:20:09.886Z,44
2023-01-11T13:21:11.434Z,44
2023-01-11T13:22:09.345Z,40
2023-01-11T13:23:09.652Z,40
2023-01-11T13:24:09.694Z,40
2023-01-11T13:25:09.972Z,36
2023-01-11T13:26:09.432Z,40
2023-01-11T13:27:10.229Z,36
2023-01-11T13:28:24.315Z,36
2023-01-11T13:29:10.268Z,36
2023-01-11T13:30:10.241Z,36
2023-01-11T13:31:10.636Z,36
2023-01-11T13:32:10.160Z,36
2023-01-11T13:33:10.210Z,36
2023-01-11T13:34:09.865Z,32
2023-01-11T13:35:09.803Z,32
2023-01-11T13:36:27.281Z,32
2023-01-11T13:37:10.168Z,28
2023-01-11T13:38:09.971Z,32
2023-01-11T13:39:10.267Z,28
2023-01-11T13:40:10.329Z,28
2023-01-11T13:41:09.966Z,28
2023-01-11T13:42:10.229Z,24
2023-01-11T13:43:10.248Z,24
2023-01-11T13:44:09.749Z,28
2023-01-11T13:45:09.984Z,28
2023-01-11T13:46:10.242Z,28
2023-01-11T13:47:10.471Z,28
2023-01-11T13:48:10.045Z,28
2023-01-11T13:49:10.044Z,28
2023-01-11T13:50:10.177Z,28
2023-01-11T13:51:10.333Z,28
2023-01-11T13:52:10.386Z,28
2023-01-11T13:53:11.289Z,28
2023-01-11T13:54:10.143Z,28
2023-01-11T13:55:27.123Z,28
2023-01-11T13:56:10.432Z,28
2023-01-11T13:57:10.169Z,28
2023-01-11T13:58:10.461Z,28
2023-01-11T13:59:10.191Z,28
2023-01-11T14:00:10.545Z,28
2023-01-11T14:01:10.850Z,28
2023-01-11T14:02:10.523Z,28
2023-01-11T14:03:10.633Z,28
2023-01-11T14:04:10.790Z,28
2023-01-11T14:05:10.569Z,24
2023-01-11T14:06:10.628Z,24
2023-01-11T14:07:10.319Z,28
2023-01-11T14:08:10.328Z,24
2023-01-11T14:09:10.111Z,24
2023-01-11T14:10:10.365Z,24
2023-01-11T14:11:10.828Z,24
2023-01-11T14:12:10.392Z,24
2023-01-11T14:13:10.689Z,24
2023-01-11T14:14:10.706Z,24
2023-01-11T14:15:10.705Z,24
2023-01-11T14:16:10.779Z,24
2023-01-11T14:17:10.928Z,24
2023-01-11T14:18:10.792Z,24
2023-01-11T14:19:10.871Z,24
2023-01-11T14:20:13.228Z,24
2023-01-11T14:21:10.799Z,24
2023-01-11T14:22:10.565Z,24
2023-01-11T14:23:13.643Z,24
2023-01-11T14:24:10.851Z,24
2023-01-11T14:25:10.868Z,20
2023-01-11T14:26:10.860Z,24
2023-01-11T14:27:11.492Z,24
2023-01-11T14:28:10.529Z,24
2023-01-11T14:29:10.948Z,20
2023-01-11T14:30:11.039Z,24
2023-01-11T14:31:10.934Z,24
2023-01-11T14:32:10.957Z,20
2023-01-11T14:33:10.956Z,24
2023-01-11T14:34:10.728Z,24
2023-01-11T14:35:11.241Z,24
2023-01-11T14:36:10.809Z,24
2023-01-11T14:37:10.789Z,24
2023-01-11T14:38:11.085Z,28
2023-01-11T14:39:10.572Z,28
2023-01-11T14:40:11.092Z,32
2023-01-11T14:41:11.131Z,28
2023-01-11T14:42:16.223Z,28
2023-01-11T14:43:11.198Z,28
2023-01-11T14:44:11.149Z,28
2023-01-11T14:45:10.907Z,28
2023-01-11T14:46:11.512Z,28
2023-01-11T14:47:10.952Z,28